sensor_id;sensor_type;location;lat;lon;timestamp;P1;durP1;ratioP1;P2;durP2;ratioP2
39620;SDS011;25309;48.686;9.170;2023-05-23T00:01:51;26.37;;;20.27;;
39620;SDS011;25309;48.686;9.170;2023-05-23T00:04:21;29.37;;;19.57;;
39620;SDS011;25309;48.686;9.170;2023-05-23T00:06:52;26.90;;;19.77;;
39620;SDS011;25309;48.686;9.170;2023-05-23T00:09:19;30.20;;;20.87;;
39620;SDS011;25309;48.686;9.170;2023-05-23T00:11:46;29.93;;;21.03;;
39620;SDS011;25309;48.686;9.170;2023-05-23T00:14:13;31.93;;;21.70;;
39620;SDS011;25309;48.686;9.170;2023-05-23T00:16:41;30.40;;;22.37;;
39620;SDS011;25309;48.686;9.170;2023-05-23T00:19:10;29.63;;;21.10;;
39620;SDS011;25309;48.686;9.170;2023-05-23T00:21:42;34.00;;;22.97;;
39620;SDS011;25309;48.686;9.170;2023-05-23T00:24:09;32.50;;;22.97;;
39620;SDS011;25309;48.686;9.170;2023-05-23T00:26:36;35.83;;;23.43;;
39620;SDS011;25309;48.686;9.170;2023-05-23T00:29:04;41.33;;;26.17;;
39620;SDS011;25309;48.686;9.170;2023-05-23T00:31:30;38.27;;;26.23;;
39620;SDS011;25309;48.686;9.170;2023-05-23T00:33:58;38.90;;;26.07;;
39620;SDS011;25309;48.686;9.170;2023-05-23T00:36:25;40.17;;;27.03;;
39620;SDS011;25309;48.686;9.170;2023-05-23T00:38:53;37.33;;;26.27;;
39620;SDS011;25309;48.686;9.170;2023-05-23T00:41:21;39.13;;;27.93;;
39620;SDS011;25309;48.686;9.170;2023-05-23T00:43:47;38.77;;;27.30;;
39620;SDS011;25309;48.686;9.170;2023-05-23T00:46:14;41.20;;;27.87;;
39620;SDS011;25309;48.686;9.170;2023-05-23T00:48:42;39.77;;;26.97;;
39620;SDS011;25309;48.686;9.170;2023-05-23T00:51:09;40.50;;;27.77;;
39620;SDS011;25309;48.686;9.170;2023-05-23T00:53:36;39.73;;;27.90;;
39620;SDS011;25309;48.686;9.170;2023-05-23T00:56:04;41.53;;;28.17;;
39620;SDS011;25309;48.686;9.170;2023-05-23T00:58:31;44.03;;;29.73;;
39620;SDS011;25309;48.686;9.170;2023-05-23T01:00:58;45.77;;;30.23;;
39620;SDS011;25309;48.686;9.170;2023-05-23T01:03:25;46.90;;;30.13;;
39620;SDS011;25309;48.686;9.170;2023-05-23T01:05:54;47.20;;;30.90;;
39620;SDS011;25309;48.686;9.170;2023-05-23T01:08:21;49.93;;;31.20;;
39620;SDS011;25309;48.686;9.170;2023-05-23T01:10:48;44.10;;;29.50;;
39620;SDS011;25309;48.686;9.170;2023-05-23T01:13:19;45.67;;;30.27;;
39620;SDS011;25309;48.686;9.170;2023-05-23T01:15:55;45.53;;;29.40;;
39620;SDS011;25309;48.686;9.170;2023-05-23T01:18:37;44.70;;;30.83;;
39620;SDS011;25309;48.686;9.170;2023-05-23T01:21:10;44.50;;;29.97;;
39620;SDS011;25309;48.686;9.170;2023-05-23T01:23:51;51.27;;;30.43;;
39620;SDS011;25309;48.686;9.170;2023-05-23T01:26:38;49.87;;;31.03;;
39620;SDS011;25309;48.686;9.170;2023-05-23T01:29:18;47.30;;;31.43;;
39620;SDS011;25309;48.686;9.170;2023-05-23T01:31:51;47.47;;;31.23;;
39620;SDS011;25309;48.686;9.170;2023-05-23T01:34:20;51.73;;;33.70;;
39620;SDS011;25309;48.686;9.170;2023-05-23T01:36:48;50.03;;;31.43;;
39620;SDS011;25309;48.686;9.170;2023-05-23T01:39:16;49.80;;;31.57;;
39620;SDS011;25309;48.686;9.170;2023-05-23T01:41:43;55.43;;;33.47;;
39620;SDS011;25309;48.686;9.170;2023-05-23T01:44:10;56.60;;;34.63;;
39620;SDS011;25309;48.686;9.170;2023-05-23T01:46:39;54.77;;;34.67;;
39620;SDS011;25309;48.686;9.170;2023-05-23T01:49:07;53.90;;;34.47;;
39620;SDS011;25309;48.686;9.170;2023-05-23T01:51:37;54.23;;;35.13;;
39620;SDS011;25309;48.686;9.170;2023-05-23T01:54:04;53.50;;;34.87;;
39620;SDS011;25309;48.686;9.170;2023-05-23T01:56:32;63.30;;;38.83;;
39620;SDS011;25309;48.686;9.170;2023-05-23T01:59:00;60.83;;;37.37;;
39620;SDS011;25309;48.686;9.170;2023-05-23T02:01:27;63.77;;;38.43;;
39620;SDS011;25309;48.686;9.170;2023-05-23T02:03:57;59.23;;;38.30;;
39620;SDS011;25309;48.686;9.170;2023-05-23T02:06:24;61.07;;;37.30;;
39620;SDS011;25309;48.686;9.170;2023-05-23T02:08:52;62.67;;;39.07;;
39620;SDS011;25309;48.686;9.170;2023-05-23T02:11:19;60.53;;;38.33;;
39620;SDS011;25309;48.686;9.170;2023-05-23T02:13:48;61.37;;;38.50;;
39620;SDS011;25309;48.686;9.170;2023-05-23T02:16:15;61.10;;;39.17;;
39620;SDS011;25309;48.686;9.170;2023-05-23T02:18:43;58.83;;;38.50;;
39620;SDS011;25309;48.686;9.170;2023-05-23T02:21:12;58.97;;;37.40;;
39620;SDS011;25309;48.686;9.170;2023-05-23T02:23:39;64.60;;;38.93;;
39620;SDS011;25309;48.686;9.170;2023-05-23T02:26:07;62.23;;;39.23;;
39620;SDS011;25309;48.686;9.170;2023-05-23T02:28:34;60.53;;;38.83;;
39620;SDS011;25309;48.686;9.170;2023-05-23T02:31:01;64.30;;;38.67;;
39620;SDS011;25309;48.686;9.170;2023-05-23T02:33:28;64.10;;;39.37;;
39620;SDS011;25309;48.686;9.170;2023-05-23T02:35:55;69.60;;;40.33;;
39620;SDS011;25309;48.686;9.170;2023-05-23T02:38:24;63.87;;;39.10;;
39620;SDS011;25309;48.686;9.170;2023-05-23T02:40:52;61.43;;;38.67;;
39620;SDS011;25309;48.686;9.170;2023-05-23T02:43:20;64.37;;;38.53;;
39620;SDS011;25309;48.686;9.170;2023-05-23T02:45:47;65.40;;;40.00;;
39620;SDS011;25309;48.686;9.170;2023-05-23T02:48:14;61.10;;;39.00;;
39620;SDS011;25309;48.686;9.170;2023-05-23T02:50:43;61.13;;;39.40;;
39620;SDS011;25309;48.686;9.170;2023-05-23T02:53:10;60.80;;;39.77;;
39620;SDS011;25309;48.686;9.170;2023-05-23T02:55:39;59.37;;;38.40;;
39620;SDS011;25309;48.686;9.170;2023-05-23T02:58:06;64.27;;;39.23;;
39620;SDS011;25309;48.686;9.170;2023-05-23T03:00:34;62.40;;;39.37;;
39620;SDS011;25309;48.686;9.170;2023-05-23T03:03:01;64.53;;;39.37;;
39620;SDS011;25309;48.686;9.170;2023-05-23T03:05:29;63.87;;;38.20;;
39620;SDS011;25309;48.686;9.170;2023-05-23T03:07:56;63.63;;;38.57;;
39620;SDS011;25309;48.686;9.170;2023-05-23T03:10:23;62.23;;;38.77;;
39620;SDS011;25309;48.686;9.170;2023-05-23T03:12:52;61.50;;;38.87;;
39620;SDS011;25309;48.686;9.170;2023-05-23T03:15:19;62.60;;;38.93;;
39620;SDS011;25309;48.686;9.170;2023-05-23T03:17:46;69.63;;;40.73;;
39620;SDS011;25309;48.686;9.170;2023-05-23T03:20:15;62.07;;;40.90;;
39620;SDS011;25309;48.686;9.170;2023-05-23T03:22:42;67.00;;;41.37;;
39620;SDS011;25309;48.686;9.170;2023-05-23T03:25:11;64.53;;;41.60;;
39620;SDS011;25309;48.686;9.170;2023-05-23T03:27:38;63.70;;;41.87;;
39620;SDS011;25309;48.686;9.170;2023-05-23T03:30:07;64.17;;;41.60;;
39620;SDS011;25309;48.686;9.170;2023-05-23T03:32:35;65.53;;;42.47;;
39620;SDS011;25309;48.686;9.170;2023-05-23T03:35:03;64.43;;;41.77;;
39620;SDS011;25309;48.686;9.170;2023-05-23T03:37:30;61.13;;;41.13;;
39620;SDS011;25309;48.686;9.170;2023-05-23T03:39:57;59.97;;;40.20;;
39620;SDS011;25309;48.686;9.170;2023-05-23T03:42:25;58.20;;;40.77;;
39620;SDS011;25309;48.686;9.170;2023-05-23T03:44:53;59.20;;;39.60;;
39620;SDS011;25309;48.686;9.170;2023-05-23T03:47:22;58.47;;;39.80;;
39620;SDS011;25309;48.686;9.170;2023-05-23T03:49:50;60.23;;;40.97;;
39620;SDS011;25309;48.686;9.170;2023-05-23T03:52:17;61.93;;;40.80;;
39620;SDS011;25309;48.686;9.170;2023-05-23T03:54:45;58.90;;;40.23;;
39620;SDS011;25309;48.686;9.170;2023-05-23T03:57:12;57.90;;;39.77;;
39620;SDS011;25309;48.686;9.170;2023-05-23T03:59:39;55.33;;;39.00;;
39620;SDS011;25309;48.686;9.170;2023-05-23T04:02:09;61.40;;;40.47;;
39620;SDS011;25309;48.686;9.170;2023-05-23T04:04:38;55.40;;;38.50;;
39620;SDS011;25309;48.686;9.170;2023-05-23T04:07:05;54.70;;;38.03;;
39620;SDS011;25309;48.686;9.170;2023-05-23T04:09:35;56.13;;;39.17;;
39620;SDS011;25309;48.686;9.170;2023-05-23T04:12:05;56.57;;;38.77;;
39620;SDS011;25309;48.686;9.170;2023-05-23T04:14:35;55.53;;;38.37;;
39620;SDS011;25309;48.686;9.170;2023-05-23T04:17:03;54.90;;;37.07;;
39620;SDS011;25309;48.686;9.170;2023-05-23T04:19:31;53.73;;;37.40;;
39620;SDS011;25309;48.686;9.170;2023-05-23T04:22:00;53.63;;;36.67;;
39620;SDS011;25309;48.686;9.170;2023-05-23T04:24:27;53.10;;;36.67;;
39620;SDS011;25309;48.686;9.170;2023-05-23T04:26:54;51.87;;;37.67;;
39620;SDS011;25309;48.686;9.170;2023-05-23T04:29:21;50.70;;;35.33;;
39620;SDS011;25309;48.686;9.170;2023-05-23T04:31:50;51.00;;;36.90;;
39620;SDS011;25309;48.686;9.170;2023-05-23T04:34:17;52.37;;;35.33;;
39620;SDS011;25309;48.686;9.170;2023-05-23T04:36:47;51.00;;;36.73;;
39620;SDS011;25309;48.686;9.170;2023-05-23T04:39:16;53.20;;;37.83;;
39620;SDS011;25309;48.686;9.170;2023-05-23T04:42:01;52.43;;;36.67;;
39620;SDS011;25309;48.686;9.170;2023-05-23T04:44:44;46.93;;;35.60;;
39620;SDS011;25309;48.686;9.170;2023-05-23T04:47:17;48.80;;;35.33;;
39620;SDS011;25309;48.686;9.170;2023-05-23T04:49:53;47.40;;;34.93;;
39620;SDS011;25309;48.686;9.170;2023-05-23T04:52:20;50.43;;;34.53;;
39620;SDS011;25309;48.686;9.170;2023-05-23T04:54:49;47.33;;;35.23;;
39620;SDS011;25309;48.686;9.170;2023-05-23T04:57:19;46.43;;;34.63;;
39620;SDS011;25309;48.686;9.170;2023-05-23T04:59:47;46.37;;;34.70;;
39620;SDS011;25309;48.686;9.170;2023-05-23T05:02:14;45.50;;;34.87;;
39620;SDS011;25309;48.686;9.170;2023-05-23T05:04:41;47.30;;;33.97;;
39620;SDS011;25309;48.686;9.170;2023-05-23T05:07:09;41.83;;;33.60;;
39620;SDS011;25309;48.686;9.170;2023-05-23T05:09:36;43.23;;;33.03;;
39620;SDS011;25309;48.686;9.170;2023-05-23T05:12:04;45.87;;;34.63;;
39620;SDS011;25309;48.686;9.170;2023-05-23T05:14:31;44.83;;;34.30;;
39620;SDS011;25309;48.686;9.170;2023-05-23T05:16:58;46.80;;;34.60;;
39620;SDS011;25309;48.686;9.170;2023-05-23T05:19:35;46.53;;;35.20;;
39620;SDS011;25309;48.686;9.170;2023-05-23T05:22:04;46.33;;;34.60;;
39620;SDS011;25309;48.686;9.170;2023-05-23T05:24:33;40.07;;;32.60;;
39620;SDS011;25309;48.686;9.170;2023-05-23T05:27:00;44.33;;;34.03;;
39620;SDS011;25309;48.686;9.170;2023-05-23T05:29:29;44.53;;;33.60;;
39620;SDS011;25309;48.686;9.170;2023-05-23T05:31:56;42.30;;;33.13;;
39620;SDS011;25309;48.686;9.170;2023-05-23T05:34:23;42.33;;;32.50;;
39620;SDS011;25309;48.686;9.170;2023-05-23T05:36:51;40.33;;;30.73;;
39620;SDS011;25309;48.686;9.170;2023-05-23T05:39:23;44.50;;;34.40;;
39620;SDS011;25309;48.686;9.170;2023-05-23T05:41:51;39.30;;;31.60;;
39620;SDS011;25309;48.686;9.170;2023-05-23T05:44:18;41.90;;;32.63;;
39620;SDS011;25309;48.686;9.170;2023-05-23T05:46:46;41.30;;;31.97;;
39620;SDS011;25309;48.686;9.170;2023-05-23T05:49:14;42.90;;;32.20;;
39620;SDS011;25309;48.686;9.170;2023-05-23T05:51:43;43.43;;;32.30;;
39620;SDS011;25309;48.686;9.170;2023-05-23T05:54:11;39.77;;;32.10;;
39620;SDS011;25309;48.686;9.170;2023-05-23T05:56:38;40.43;;;32.57;;
39620;SDS011;25309;48.686;9.170;2023-05-23T05:59:05;42.37;;;33.93;;
39620;SDS011;25309;48.686;9.170;2023-05-23T06:01:32;41.57;;;33.00;;
39620;SDS011;25309;48.686;9.170;2023-05-23T06:04:01;42.90;;;33.40;;
39620;SDS011;25309;48.686;9.170;2023-05-23T06:06:29;43.50;;;33.60;;
39620;SDS011;25309;48.686;9.170;2023-05-23T06:08:57;43.47;;;34.03;;
39620;SDS011;25309;48.686;9.170;2023-05-23T06:11:25;41.43;;;33.77;;
39620;SDS011;25309;48.686;9.170;2023-05-23T06:13:52;41.10;;;33.93;;
39620;SDS011;25309;48.686;9.170;2023-05-23T06:16:19;39.80;;;31.60;;
39620;SDS011;25309;48.686;9.170;2023-05-23T06:18:46;42.30;;;33.80;;
39620;SDS011;25309;48.686;9.170;2023-05-23T06:21:15;40.00;;;31.60;;
39620;SDS011;25309;48.686;9.170;2023-05-23T06:23:42;40.00;;;31.80;;
39620;SDS011;25309;48.686;9.170;2023-05-23T06:26:09;40.73;;;32.10;;
39620;SDS011;25309;48.686;9.170;2023-05-23T06:28:36;41.97;;;33.40;;
39620;SDS011;25309;48.686;9.170;2023-05-23T06:31:05;38.87;;;32.73;;
39620;SDS011;25309;48.686;9.170;2023-05-23T06:33:35;37.03;;;31.30;;
39620;SDS011;25309;48.686;9.170;2023-05-23T06:36:02;38.67;;;31.90;;
39620;SDS011;25309;48.686;9.170;2023-05-23T06:38:31;37.43;;;30.70;;
39620;SDS011;25309;48.686;9.170;2023-05-23T06:41:01;35.23;;;30.57;;
39620;SDS011;25309;48.686;9.170;2023-05-23T06:43:29;38.57;;;31.57;;
39620;SDS011;25309;48.686;9.170;2023-05-23T06:46:14;36.03;;;31.03;;
39620;SDS011;25309;48.686;9.170;2023-05-23T06:48:41;35.77;;;30.07;;
39620;SDS011;25309;48.686;9.170;2023-05-23T06:51:08;38.13;;;31.27;;
39620;SDS011;25309;48.686;9.170;2023-05-23T06:53:37;35.77;;;31.00;;
39620;SDS011;25309;48.686;9.170;2023-05-23T06:56:05;35.87;;;29.97;;
39620;SDS011;25309;48.686;9.170;2023-05-23T06:58:38;36.43;;;31.50;;
39620;SDS011;25309;48.686;9.170;2023-05-23T07:01:06;33.30;;;29.00;;
39620;SDS011;25309;48.686;9.170;2023-05-23T07:03:37;37.73;;;30.63;;
39620;SDS011;25309;48.686;9.170;2023-05-23T07:06:07;35.47;;;29.60;;
39620;SDS011;25309;48.686;9.170;2023-05-23T07:08:34;35.07;;;29.13;;
39620;SDS011;25309;48.686;9.170;2023-05-23T07:11:04;34.17;;;29.53;;
39620;SDS011;25309;48.686;9.170;2023-05-23T07:13:36;33.37;;;29.33;;
39620;SDS011;25309;48.686;9.170;2023-05-23T07:16:04;36.23;;;28.50;;
39620;SDS011;25309;48.686;9.170;2023-05-23T07:18:34;33.43;;;27.93;;
39620;SDS011;25309;48.686;9.170;2023-05-23T07:21:04;35.53;;;28.47;;
39620;SDS011;25309;48.686;9.170;2023-05-23T07:23:31;32.93;;;27.73;;
39620;SDS011;25309;48.686;9.170;2023-05-23T07:25:59;30.47;;;26.90;;
39620;SDS011;25309;48.686;9.170;2023-05-23T07:28:42;32.47;;;26.57;;
39620;SDS011;25309;48.686;9.170;2023-05-23T07:31:09;30.23;;;26.07;;
39620;SDS011;25309;48.686;9.170;2023-05-23T07:33:37;31.07;;;26.40;;
39620;SDS011;25309;48.686;9.170;2023-05-23T07:36:06;31.70;;;26.57;;
39620;SDS011;25309;48.686;9.170;2023-05-23T07:38:33;32.00;;;25.23;;
39620;SDS011;25309;48.686;9.170;2023-05-23T07:41:00;29.73;;;25.17;;
39620;SDS011;25309;48.686;9.170;2023-05-23T07:43:37;31.23;;;25.87;;
39620;SDS011;25309;48.686;9.170;2023-05-23T07:46:05;31.73;;;27.20;;
39620;SDS011;25309;48.686;9.170;2023-05-23T07:48:32;31.33;;;27.23;;
39620;SDS011;25309;48.686;9.170;2023-05-23T07:50:59;33.47;;;28.00;;
39620;SDS011;25309;48.686;9.170;2023-05-23T07:53:27;31.87;;;27.53;;
39620;SDS011;25309;48.686;9.170;2023-05-23T07:55:54;31.40;;;27.03;;
39620;SDS011;25309;48.686;9.170;2023-05-23T07:58:25;32.10;;;27.37;;
39620;SDS011;25309;48.686;9.170;2023-05-23T08:00:52;31.83;;;27.10;;
39620;SDS011;25309;48.686;9.170;2023-05-23T08:03:42;36.77;;;28.80;;
39620;SDS011;25309;48.686;9.170;2023-05-23T08:06:16;34.50;;;28.70;;
39620;SDS011;25309;48.686;9.170;2023-05-23T08:08:43;35.50;;;29.23;;
39620;SDS011;25309;48.686;9.170;2023-05-23T08:11:10;34.30;;;29.23;;
39620;SDS011;25309;48.686;9.170;2023-05-23T08:13:43;34.70;;;29.23;;
39620;SDS011;25309;48.686;9.170;2023-05-23T08:16:30;37.73;;;31.67;;
39620;SDS011;25309;48.686;9.170;2023-05-23T08:19:00;34.20;;;29.80;;
39620;SDS011;25309;48.686;9.170;2023-05-23T08:21:27;36.53;;;29.87;;
39620;SDS011;25309;48.686;9.170;2023-05-23T08:23:54;34.17;;;28.23;;
39620;SDS011;25309;48.686;9.170;2023-05-23T08:26:21;34.43;;;28.60;;
39620;SDS011;25309;48.686;9.170;2023-05-23T08:28:49;31.40;;;27.37;;
39620;SDS011;25309;48.686;9.170;2023-05-23T08:31:17;29.50;;;26.10;;
39620;SDS011;25309;48.686;9.170;2023-05-23T08:33:44;27.87;;;24.97;;
39620;SDS011;25309;48.686;9.170;2023-05-23T08:36:13;29.00;;;25.50;;
39620;SDS011;25309;48.686;9.170;2023-05-23T08:38:41;28.37;;;24.83;;
39620;SDS011;25309;48.686;9.170;2023-05-23T08:41:15;28.57;;;24.17;;
39620;SDS011;25309;48.686;9.170;2023-05-23T08:43:46;28.73;;;24.77;;
39620;SDS011;25309;48.686;9.170;2023-05-23T08:46:19;27.07;;;23.93;;
39620;SDS011;25309;48.686;9.170;2023-05-23T08:48:49;27.13;;;23.93;;
39620;SDS011;25309;48.686;9.170;2023-05-23T08:51:20;26.63;;;23.77;;
39620;SDS011;25309;48.686;9.170;2023-05-23T08:53:50;26.50;;;23.10;;
39620;SDS011;25309;48.686;9.170;2023-05-23T08:56:21;26.77;;;23.87;;
39620;SDS011;25309;48.686;9.170;2023-05-23T08:58:51;25.73;;;22.93;;
39620;SDS011;25309;48.686;9.170;2023-05-23T09:01:20;26.87;;;22.87;;
39620;SDS011;25309;48.686;9.170;2023-05-23T09:03:51;24.07;;;21.17;;
39620;SDS011;25309;48.686;9.170;2023-05-23T09:06:26;27.33;;;21.87;;
39620;SDS011;25309;48.686;9.170;2023-05-23T09:08:53;22.80;;;19.37;;
39620;SDS011;25309;48.686;9.170;2023-05-23T09:11:22;21.67;;;19.17;;
39620;SDS011;25309;48.686;9.170;2023-05-23T09:13:50;23.07;;;19.90;;
39620;SDS011;25309;48.686;9.170;2023-05-23T09:16:20;21.97;;;19.47;;
39620;SDS011;25309;48.686;9.170;2023-05-23T09:18:51;22.73;;;20.33;;
39620;SDS011;25309;48.686;9.170;2023-05-23T09:21:20;23.03;;;18.53;;
39620;SDS011;25309;48.686;9.170;2023-05-23T09:23:58;21.73;;;19.33;;
39620;SDS011;25309;48.686;9.170;2023-05-23T09:26:26;23.60;;;19.77;;
39620;SDS011;25309;48.686;9.170;2023-05-23T09:28:56;22.37;;;18.70;;
39620;SDS011;25309;48.686;9.170;2023-05-23T09:31:25;21.20;;;18.80;;
39620;SDS011;25309;48.686;9.170;2023-05-23T09:33:56;21.93;;;18.50;;
39620;SDS011;25309;48.686;9.170;2023-05-23T09:36:23;19.80;;;17.70;;
39620;SDS011;25309;48.686;9.170;2023-05-23T09:38:54;23.20;;;19.50;;
39620;SDS011;25309;48.686;9.170;2023-05-23T09:41:23;20.07;;;17.90;;
39620;SDS011;25309;48.686;9.170;2023-05-23T09:43:50;21.90;;;18.23;;
39620;SDS011;25309;48.686;9.170;2023-05-23T09:46:19;20.70;;;17.47;;
39620;SDS011;25309;48.686;9.170;2023-05-23T09:48:46;17.83;;;15.47;;
39620;SDS011;25309;48.686;9.170;2023-05-23T09:51:14;17.37;;;15.20;;
39620;SDS011;25309;48.686;9.170;2023-05-23T09:53:44;14.77;;;13.20;;
39620;SDS011;25309;48.686;9.170;2023-05-23T09:56:11;14.83;;;13.23;;
39620;SDS011;25309;48.686;9.170;2023-05-23T09:58:43;16.80;;;13.13;;
39620;SDS011;25309;48.686;9.170;2023-05-23T10:01:12;14.30;;;12.17;;
39620;SDS011;25309;48.686;9.170;2023-05-23T10:03:43;13.50;;;11.67;;
39620;SDS011;25309;48.686;9.170;2023-05-23T10:06:14;13.27;;;11.23;;
39620;SDS011;25309;48.686;9.170;2023-05-23T10:08:47;12.93;;;11.03;;
39620;SDS011;25309;48.686;9.170;2023-05-23T10:14:29;13.73;;;11.37;;
39620;SDS011;25309;48.686;9.170;2023-05-23T10:17:06;15.87;;;11.53;;
39620;SDS011;25309;48.686;9.170;2023-05-23T10:19:37;12.60;;;10.17;;
39620;SDS011;25309;48.686;9.170;2023-05-23T10:22:09;12.53;;;11.23;;
39620;SDS011;25309;48.686;9.170;2023-05-23T10:24:38;12.07;;;10.77;;
39620;SDS011;25309;48.686;9.170;2023-05-23T10:27:06;13.33;;;10.00;;
39620;SDS011;25309;48.686;9.170;2023-05-23T10:29:35;12.13;;;10.63;;
39620;SDS011;25309;48.686;9.170;2023-05-23T10:32:03;15.20;;;10.60;;
39620;SDS011;25309;48.686;9.170;2023-05-23T10:34:33;11.70;;;10.50;;
39620;SDS011;25309;48.686;9.170;2023-05-23T10:37:06;11.10;;;9.30;;
39620;SDS011;25309;48.686;9.170;2023-05-23T10:39:39;10.67;;;9.63;;
39620;SDS011;25309;48.686;9.170;2023-05-23T10:42:12;11.23;;;9.10;;
39620;SDS011;25309;48.686;9.170;2023-05-23T10:44:44;10.10;;;9.10;;
39620;SDS011;25309;48.686;9.170;2023-05-23T10:47:11;11.07;;;9.30;;
39620;SDS011;25309;48.686;9.170;2023-05-23T10:49:39;10.90;;;9.63;;
39620;SDS011;25309;48.686;9.170;2023-05-23T10:52:07;11.73;;;9.20;;
39620;SDS011;25309;48.686;9.170;2023-05-23T10:54:35;9.80;;;8.80;;
39620;SDS011;25309;48.686;9.170;2023-05-23T10:57:02;12.50;;;8.87;;
39620;SDS011;25309;48.686;9.170;2023-05-23T10:59:31;9.83;;;8.50;;
39620;SDS011;25309;48.686;9.170;2023-05-23T11:02:00;10.70;;;9.50;;
39620;SDS011;25309;48.686;9.170;2023-05-23T11:04:28;10.30;;;8.87;;
39620;SDS011;25309;48.686;9.170;2023-05-23T11:06:55;11.40;;;8.77;;
39620;SDS011;25309;48.686;9.170;2023-05-23T11:09:22;10.87;;;8.57;;
39620;SDS011;25309;48.686;9.170;2023-05-23T11:11:59;9.20;;;8.30;;
39620;SDS011;25309;48.686;9.170;2023-05-23T11:14:30;9.83;;;8.80;;
39620;SDS011;25309;48.686;9.170;2023-05-23T11:17:29;9.57;;;8.33;;
39620;SDS011;25309;48.686;9.170;2023-05-23T11:19:58;10.83;;;8.53;;
39620;SDS011;25309;48.686;9.170;2023-05-23T11:22:27;9.97;;;8.27;;
39620;SDS011;25309;48.686;9.170;2023-05-23T11:24:57;9.40;;;8.40;;
39620;SDS011;25309;48.686;9.170;2023-05-23T11:27:26;9.93;;;8.93;;
39620;SDS011;25309;48.686;9.170;2023-05-23T11:29:57;10.70;;;8.83;;
39620;SDS011;25309;48.686;9.170;2023-05-23T11:32:27;9.67;;;8.70;;
39620;SDS011;25309;48.686;9.170;2023-05-23T11:34:58;9.70;;;8.53;;
39620;SDS011;25309;48.686;9.170;2023-05-23T11:37:26;13.13;;;9.20;;
39620;SDS011;25309;48.686;9.170;2023-05-23T11:39:53;9.63;;;7.80;;
39620;SDS011;25309;48.686;9.170;2023-05-23T11:42:21;8.90;;;8.00;;
39620;SDS011;25309;48.686;9.170;2023-05-23T11:44:48;9.40;;;7.60;;
39620;SDS011;25309;48.686;9.170;2023-05-23T11:47:16;9.97;;;8.50;;
39620;SDS011;25309;48.686;9.170;2023-05-23T11:49:45;8.90;;;8.10;;
39620;SDS011;25309;48.686;9.170;2023-05-23T11:52:13;9.73;;;7.77;;
39620;SDS011;25309;48.686;9.170;2023-05-23T11:54:40;9.97;;;7.60;;
39620;SDS011;25309;48.686;9.170;2023-05-23T11:57:08;9.17;;;8.17;;
39620;SDS011;25309;48.686;9.170;2023-05-23T11:59:36;10.40;;;7.97;;
39620;SDS011;25309;48.686;9.170;2023-05-23T12:02:05;9.53;;;8.07;;
39620;SDS011;25309;48.686;9.170;2023-05-23T12:04:33;8.90;;;8.00;;
39620;SDS011;25309;48.686;9.170;2023-05-23T12:07:04;10.00;;;9.03;;
39620;SDS011;25309;48.686;9.170;2023-05-23T12:09:40;10.50;;;9.23;;
39620;SDS011;25309;48.686;9.170;2023-05-23T12:12:07;9.37;;;8.47;;
39620;SDS011;25309;48.686;9.170;2023-05-23T12:14:34;9.33;;;8.40;;
39620;SDS011;25309;48.686;9.170;2023-05-23T12:17:04;10.13;;;9.13;;
39620;SDS011;25309;48.686;9.170;2023-05-23T12:19:31;9.33;;;8.43;;
39620;SDS011;25309;48.686;9.170;2023-05-23T12:22:04;8.50;;;7.70;;
39620;SDS011;25309;48.686;9.170;2023-05-23T12:24:33;10.07;;;8.43;;
39620;SDS011;25309;48.686;9.170;2023-05-23T12:27:01;10.17;;;8.60;;
39620;SDS011;25309;48.686;9.170;2023-05-23T12:29:29;9.33;;;8.37;;
39620;SDS011;25309;48.686;9.170;2023-05-23T12:32:00;9.13;;;8.23;;
39620;SDS011;25309;48.686;9.170;2023-05-23T12:34:28;9.97;;;8.40;;
39620;SDS011;25309;48.686;9.170;2023-05-23T12:36:55;9.70;;;8.40;;
39620;SDS011;25309;48.686;9.170;2023-05-23T12:39:44;8.60;;;7.80;;
39620;SDS011;25309;48.686;9.170;2023-05-23T12:42:11;9.03;;;8.13;;
39620;SDS011;25309;48.686;9.170;2023-05-23T12:44:39;7.30;;;6.60;;
39620;SDS011;25309;48.686;9.170;2023-05-23T12:47:06;6.53;;;5.93;;
39620;SDS011;25309;48.686;9.170;2023-05-23T12:49:34;6.70;;;5.83;;
39620;SDS011;25309;48.686;9.170;2023-05-23T12:52:01;7.00;;;6.30;;
39620;SDS011;25309;48.686;9.170;2023-05-23T12:54:28;6.67;;;6.07;;
39620;SDS011;25309;48.686;9.170;2023-05-23T12:56:56;6.30;;;5.70;;
39620;SDS011;25309;48.686;9.170;2023-05-23T12:59:23;6.80;;;6.10;;
39620;SDS011;25309;48.686;9.170;2023-05-23T13:01:50;6.93;;;6.23;;
39620;SDS011;25309;48.686;9.170;2023-05-23T13:04:17;6.57;;;5.73;;
39620;SDS011;25309;48.686;9.170;2023-05-23T13:06:44;6.67;;;6.00;;
39620;SDS011;25309;48.686;9.170;2023-05-23T13:09:11;6.00;;;5.03;;
39620;SDS011;25309;48.686;9.170;2023-05-23T13:11:38;5.27;;;4.77;;
39620;SDS011;25309;48.686;9.170;2023-05-23T13:14:08;5.73;;;4.30;;
39620;SDS011;25309;48.686;9.170;2023-05-23T13:16:35;5.10;;;4.60;;
39620;SDS011;25309;48.686;9.170;2023-05-23T13:19:02;5.40;;;4.90;;
39620;SDS011;25309;48.686;9.170;2023-05-23T13:21:29;5.27;;;4.27;;
39620;SDS011;25309;48.686;9.170;2023-05-23T13:23:57;5.00;;;4.60;;
39620;SDS011;25309;48.686;9.170;2023-05-23T13:26:23;5.40;;;4.83;;
39620;SDS011;25309;48.686;9.170;2023-05-23T13:28:51;5.50;;;4.70;;
39620;SDS011;25309;48.686;9.170;2023-05-23T13:31:20;5.47;;;4.97;;
39620;SDS011;25309;48.686;9.170;2023-05-23T13:33:47;4.40;;;4.00;;
39620;SDS011;25309;48.686;9.170;2023-05-23T13:36:14;5.20;;;4.07;;
39620;SDS011;25309;48.686;9.170;2023-05-23T13:38:41;5.07;;;4.60;;
39620;SDS011;25309;48.686;9.170;2023-05-23T13:41:08;4.90;;;4.40;;
39620;SDS011;25309;48.686;9.170;2023-05-23T13:43:35;4.83;;;3.93;;
39620;SDS011;25309;48.686;9.170;2023-05-23T13:46:02;4.50;;;4.10;;
39620;SDS011;25309;48.686;9.170;2023-05-23T13:48:30;4.70;;;4.03;;
39620;SDS011;25309;48.686;9.170;2023-05-23T13:50:57;4.30;;;3.90;;
39620;SDS011;25309;48.686;9.170;2023-05-23T13:53:24;4.17;;;3.77;;
39620;SDS011;25309;48.686;9.170;2023-05-23T13:55:51;5.37;;;4.03;;
39620;SDS011;25309;48.686;9.170;2023-05-23T13:58:18;4.43;;;3.93;;
39620;SDS011;25309;48.686;9.170;2023-05-23T14:00:45;4.97;;;4.33;;
39620;SDS011;25309;48.686;9.170;2023-05-23T14:03:12;5.60;;;4.20;;
39620;SDS011;25309;48.686;9.170;2023-05-23T14:05:42;5.17;;;3.77;;
39620;SDS011;25309;48.686;9.170;2023-05-23T14:08:09;5.30;;;3.70;;
39620;SDS011;25309;48.686;9.170;2023-05-23T14:10:38;4.60;;;4.20;;
39620;SDS011;25309;48.686;9.170;2023-05-23T14:13:06;4.37;;;3.97;;
39620;SDS011;25309;48.686;9.170;2023-05-23T14:15:33;5.80;;;3.70;;
39620;SDS011;25309;48.686;9.170;2023-05-23T14:18:00;3.63;;;3.27;;
39620;SDS011;25309;48.686;9.170;2023-05-23T14:20:27;3.33;;;3.03;;
39620;SDS011;25309;48.686;9.170;2023-05-23T14:22:56;4.73;;;3.10;;
39620;SDS011;25309;48.686;9.170;2023-05-23T14:25:23;3.63;;;3.27;;
39620;SDS011;25309;48.686;9.170;2023-05-23T14:27:50;4.07;;;3.37;;
39620;SDS011;25309;48.686;9.170;2023-05-23T14:30:17;5.87;;;3.27;;
39620;SDS011;25309;48.686;9.170;2023-05-23T14:32:44;4.30;;;3.20;;
39620;SDS011;25309;48.686;9.170;2023-05-23T14:35:11;4.17;;;3.30;;
39620;SDS011;25309;48.686;9.170;2023-05-23T14:37:38;3.50;;;3.20;;
39620;SDS011;25309;48.686;9.170;2023-05-23T14:40:08;3.90;;;3.50;;
39620;SDS011;25309;48.686;9.170;2023-05-23T14:42:35;3.80;;;3.20;;